Time;durP1;ratioP1;P1;durP2;ratioP2;P2;SDS_P1;SDS_P2;PMS_P1;PMS_P2;Temp;Humidity;BMP_temperature;BMP_pressure;BME280_temperature;BME280_humidity;BME280_pressure;Samples;Min_cycle;Max_cycle;Signal;HPM_P1;HPM_P2
2022/01/07 00:00:55;;;;;;;17.03;4.27;;;;;;;;;;5051551;28;20207;-70
2022/01/07 00:03:22;;;;;;;24.67;5.97;;;;;;;;;;5059882;28;20226;-70
2022/01/07 00:05:48;;;;;;;13.50;3.50;;;;;;;;;;5060851;28;20298;-70
2022/01/07 00:08:14;;;;;;;13.90;3.53;;;;;;;;;;5056697;28;20187;-70
2022/01/07 00:10:40;;;;;;;15.97;3.93;;;;;;;;;;5059677;28;20211;-69
2022/01/07 00:13:06;;;;;;;21.67;5.13;;;;;;;;;;5061468;28;20221;-70
2022/01/07 00:15:32;;;;;;;18.70;4.57;;;;;;;;;;5057783;28;20544;-70
2022/01/07 00:17:58;;;;;;;14.40;3.63;;;;;;;;;;5055405;28;20237;-70
2022/01/07 00:20:24;;;;;;;7.43;2.20;;;;;;;;;;5059659;28;20183;-70
2022/01/07 00:22:50;;;;;;;23.53;5.63;;;;;;;;;;5059254;28;20230;-70
2022/01/07 00:25:16;;;;;;;21.37;5.23;;;;;;;;;;5062666;28;20248;-69
2022/01/07 00:27:42;;;;;;;14.37;3.60;;;;;;;;;;5061280;28;20194;-70
2022/01/07 00:30:10;;;;;;;21.47;5.13;;;;;;;;;;5055737;28;20186;-70
2022/01/07 00:32:36;;;;;;;6.50;1.93;;;;;;;;;;5055498;28;20212;-70
2022/01/07 00:35:01;;;;;;;29.47;6.67;;;;;;;;;;5058909;28;20192;-69
2022/01/07 00:37:27;;;;;;;15.00;3.83;;;;;;;;;;5054174;28;20252;-69
2022/01/07 00:39:53;;;;;;;11.63;3.30;;;;;;;;;;5044546;28;20727;-70
2022/01/07 00:42:19;;;;;;;10.87;2.90;;;;;;;;;;5062260;28;20199;-69
2022/01/07 00:44:45;;;;;;;21.07;5.13;;;;;;;;;;5058180;28;20184;-70
2022/01/07 00:47:11;;;;;;;15.90;4.03;;;;;;;;;;5053365;28;20188;-70
2022/01/07 00:49:37;;;;;;;8.60;2.43;;;;;;;;;;5060730;28;20210;-70
2022/01/07 00:52:03;;;;;;;9.40;2.70;;;;;;;;;;5054903;28;20214;-70
2022/01/07 00:54:29;;;;;;;18.47;4.63;;;;;;;;;;5054336;28;20183;-70
2022/01/07 00:56:55;;;;;;;10.70;2.87;;;;;;;;;;5042117;28;20408;-70
2022/01/07 00:59:21;;;;;;;17.73;4.17;;;;;;;;;;5061194;28;20270;-70
2022/01/07 01:01:48;;;;;;;10.93;2.90;;;;;;;;;;5053587;28;20281;-70
2022/01/07 01:04:14;;;;;;;18.87;4.43;;;;;;;;;;5054648;28;20187;-70
2022/01/07 01:06:41;;;;;;;12.87;3.40;;;;;;;;;;5059048;28;20206;-69
2022/01/07 01:09:08;;;;;;;12.10;3.00;;;;;;;;;;5056831;28;20182;-69
2022/01/07 01:11:34;;;;;;;21.30;4.97;;;;;;;;;;5059399;28;20215;-70
2022/01/07 01:14:00;;;;;;;18.73;4.30;;;;;;;;;;5058942;28;20194;-70
2022/01/07 01:16:26;;;;;;;16.20;3.83;;;;;;;;;;5061174;28;21169;-70
2022/01/07 01:18:52;;;;;;;17.30;4.13;;;;;;;;;;5052052;28;20183;-70
2022/01/07 01:21:17;;;;;;;16.73;4.03;;;;;;;;;;5059665;28;20229;-69
2022/01/07 01:23:45;;;;;;;10.87;3.00;;;;;;;;;;5040573;28;20188;-69
2022/01/07 01:26:12;;;;;;;25.00;5.53;;;;;;;;;;5056403;28;20671;-70
2022/01/07 01:28:38;;;;;;;11.87;3.13;;;;;;;;;;5058502;28;20261;-70
2022/01/07 01:31:04;;;;;;;17.43;4.23;;;;;;;;;;5059640;28;20292;-70
2022/01/07 01:33:29;;;;;;;26.67;6.17;;;;;;;;;;5052870;28;20301;-70
2022/01/07 01:35:55;;;;;;;9.53;2.63;;;;;;;;;;5057514;28;20215;-70
2022/01/07 01:38:21;;;;;;;9.93;2.67;;;;;;;;;;5056119;28;20180;-70
2022/01/07 01:40:47;;;;;;;21.27;5.10;;;;;;;;;;5056529;28;20191;-70
2022/01/07 01:43:13;;;;;;;21.73;5.10;;;;;;;;;;5059951;28;20229;-70
2022/01/07 01:45:39;;;;;;;20.47;4.90;;;;;;;;;;5055734;28;20294;-70
2022/01/07 01:48:05;;;;;;;12.17;3.10;;;;;;;;;;5055931;28;20248;-70
2022/01/07 01:50:31;;;;;;;13.90;3.43;;;;;;;;;;5062984;28;20589;-69
2022/01/07 01:52:57;;;;;;;17.43;4.23;;;;;;;;;;5037839;28;20586;-70
2022/01/07 01:55:27;;;;;;;19.70;4.73;;;;;;;;;;5055159;28;20194;-70
2022/01/07 01:57:53;;;;;;;25.80;6.03;;;;;;;;;;5040067;28;20195;-70
2022/01/07 02:00:20;;;;;;;16.90;4.10;;;;;;;;;;5059253;28;20183;-70
2022/01/07 02:02:46;;;;;;;19.33;4.60;;;;;;;;;;5037888;28;20881;-69
2022/01/07 02:05:12;;;;;;;17.50;4.27;;;;;;;;;;5056651;28;20272;-70
2022/01/07 02:07:40;;;;;;;24.67;5.73;;;;;;;;;;5056146;28;20242;-70
2022/01/07 02:10:07;;;;;;;17.17;4.17;;;;;;;;;;5058093;28;20179;-70
2022/01/07 02:12:33;;;;;;;23.73;5.53;;;;;;;;;;5056120;28;20203;-70
2022/01/07 02:14:59;;;;;;;17.03;4.20;;;;;;;;;;5058519;28;20509;-70
2022/01/07 02:17:26;;;;;;;21.83;5.17;;;;;;;;;;5056247;28;20344;-70
2022/01/07 02:19:52;;;;;;;16.97;4.17;;;;;;;;;;5056833;28;20251;-70
2022/01/07 02:22:18;;;;;;;23.93;5.57;;;;;;;;;;5057414;28;20529;-70
2022/01/07 02:24:45;;;;;;;18.33;4.37;;;;;;;;;;5053440;28;20183;-69
2022/01/07 02:27:12;;;;;;;12.70;3.27;;;;;;;;;;5058598;28;20632;-69
2022/01/07 02:29:38;;;;;;;13.67;3.50;;;;;;;;;;5057352;28;20191;-69
2022/01/07 02:32:04;;;;;;;21.03;5.00;;;;;;;;;;5056541;28;20206;-70
2022/01/07 02:34:30;;;;;;;9.30;2.60;;;;;;;;;;5059199;28;20191;-70
2022/01/07 02:36:56;;;;;;;14.77;3.53;;;;;;;;;;5058792;28;20217;-70
2022/01/07 02:39:22;;;;;;;15.87;3.87;;;;;;;;;;5050230;28;20191;-70
2022/01/07 02:41:48;;;;;;;14.87;3.80;;;;;;;;;;5059843;28;20618;-69
2022/01/07 02:44:14;;;;;;;17.17;4.20;;;;;;;;;;5038963;28;20361;-69
2022/01/07 02:46:41;;;;;;;24.93;5.70;;;;;;;;;;5057418;28;20194;-70
2022/01/07 02:49:11;;;;;;;16.30;4.00;;;;;;;;;;5058066;28;20590;-70
2022/01/07 02:51:37;;;;;;;19.17;4.73;;;;;;;;;;5050002;28;20296;-70
2022/01/07 02:54:03;;;;;;;18.43;4.43;;;;;;;;;;5052245;28;20245;-70
2022/01/07 02:56:29;;;;;;;14.57;3.50;;;;;;;;;;5055977;28;20203;-70
2022/01/07 02:58:55;;;;;;;10.33;2.70;;;;;;;;;;5059207;28;20190;-70
2022/01/07 03:01:21;;;;;;;21.73;5.23;;;;;;;;;;5053773;28;20227;-70
2022/01/07 03:03:47;;;;;;;18.00;4.40;;;;;;;;;;5051634;28;20184;-70
2022/01/07 03:06:13;;;;;;;12.03;3.13;;;;;;;;;;5058515;28;20229;-69
2022/01/07 03:08:39;;;;;;;19.50;4.73;;;;;;;;;;5054667;28;20179;-69
2022/01/07 03:11:04;;;;;;;17.93;4.40;;;;;;;;;;5055870;28;20325;-69
2022/01/07 03:13:30;;;;;;;17.97;4.57;;;;;;;;;;5056597;28;20187;-70
2022/01/07 03:15:56;;;;;;;21.80;5.17;;;;;;;;;;5040527;28;20198;-70
2022/01/07 03:18:22;;;;;;;15.60;3.90;;;;;;;;;;5056241;28;20191;-70
2022/01/07 03:20:48;;;;;;;10.43;2.80;;;;;;;;;;5056452;28;20183;-70
2022/01/07 03:23:14;;;;;;;30.70;6.97;;;;;;;;;;5053924;28;20556;-70
2022/01/07 03:25:41;;;;;;;16.30;4.00;;;;;;;;;;5058062;28;20252;-70
2022/01/07 03:28:08;;;;;;;13.13;3.30;;;;;;;;;;5055206;28;20234;-69
2022/01/07 03:30:34;;;;;;;20.23;4.93;;;;;;;;;;5050659;28;22199;-70
2022/01/07 03:33:00;;;;;;;18.53;4.47;;;;;;;;;;5054980;28;20214;-70
2022/01/07 03:35:26;;;;;;;9.47;2.67;;;;;;;;;;5039084;28;20175;-69
2022/01/07 03:37:52;;;;;;;29.23;6.80;;;;;;;;;;5054444;28;20706;-69
2022/01/07 03:40:19;;;;;;;14.47;3.77;;;;;;;;;;5059311;28;20324;-70
2022/01/07 03:42:45;;;;;;;15.53;3.90;;;;;;;;;;5047309;28;20207;-69
2022/01/07 03:45:12;;;;;;;14.60;3.67;;;;;;;;;;5059501;28;20194;-69
2022/01/07 03:47:38;;;;;;;19.23;4.77;;;;;;;;;;5059466;28;20210;-70
2022/01/07 03:50:08;;;;;;;16.67;4.27;;;;;;;;;;5059558;28;20730;-69
2022/01/07 03:52:34;;;;;;;26.67;7.07;;;;;;;;;;5062491;23;20318;-50
2022/01/07 03:55:00;;;;;;;25.27;6.47;;;;;;;;;;5035327;28;20183;-50
2022/01/07 03:57:26;;;;;;;17.47;4.83;;;;;;;;;;5040899;28;20306;-50
2022/01/07 03:59:52;;;;;;;27.47;7.60;;;;;;;;;;5035218;28;20187;-50
2022/01/07 04:02:19;;;;;;;20.17;5.50;;;;;;;;;;5040993;28;20298;-50
2022/01/07 04:04:45;;;;;;;22.67;6.10;;;;;;;;;;5039220;28;20184;-50
2022/01/07 04:07:11;;;;;;;18.53;4.73;;;;;;;;;;5043345;28;20194;-50
2022/01/07 04:09:37;;;;;;;20.07;5.63;;;;;;;;;;5035697;28;20188;-50
2022/01/07 04:12:03;;;;;;;12.13;3.83;;;;;;;;;;5036001;28;20191;-51
2022/01/07 04:14:29;;;;;;;21.47;5.83;;;;;;;;;;5034539;28;20705;-50
2022/01/07 04:16:56;;;;;;;19.17;5.27;;;;;;;;;;5034604;28;20242;-50
2022/01/07 04:19:22;;;;;;;19.97;5.33;;;;;;;;;;5037442;28;20171;-50
2022/01/07 04:21:49;;;;;;;21.27;5.80;;;;;;;;;;5038907;28;20659;-51
2022/01/07 04:24:16;;;;;;;14.27;4.53;;;;;;;;;;5033945;28;20337;-50
2022/01/07 04:26:42;;;;;;;32.73;8.77;;;;;;;;;;5027010;28;20717;-50
2022/01/07 04:29:07;;;;;;;11.17;3.70;;;;;;;;;;5036336;28;20199;-50
2022/01/07 04:31:33;;;;;;;23.27;6.60;;;;;;;;;;5035699;28;20194;-50
2022/01/07 04:33:59;;;;;;;25.63;6.97;;;;;;;;;;5027643;28;20582;-50
2022/01/07 04:36:25;;;;;;;22.00;6.13;;;;;;;;;;5033896;28;20255;-50
2022/01/07 04:38:51;;;;;;;14.73;3.93;;;;;;;;;;5035301;28;20176;-51
2022/01/07 04:41:17;;;;;;;14.07;4.00;;;;;;;;;;5041646;28;20643;-50
2022/01/07 04:43:43;;;;;;;15.17;4.67;;;;;;;;;;5047836;28;20399;-50
2022/01/07 04:46:09;;;;;;;43.50;11.73;;;;;;;;;;5033415;28;20211;-50
2022/01/07 04:48:35;;;;;;;21.63;6.07;;;;;;;;;;5029663;28;20848;-51
2022/01/07 04:51:01;;;;;;;18.10;5.07;;;;;;;;;;5034499;28;20183;-50
2022/01/07 04:53:27;;;;;;;22.33;6.23;;;;;;;;;;5035151;28;20246;-51
2022/01/07 04:55:53;;;;;;;27.77;7.37;;;;;;;;;;5031976;28;20393;-50
2022/01/07 04:58:19;;;;;;;16.67;4.37;;;;;;;;;;5025115;28;20559;-50
2022/01/07 05:00:45;;;;;;;16.30;5.00;;;;;;;;;;5038276;28;20191;-50
2022/01/07 05:03:12;;;;;;;49.20;13.97;;;;;;;;;;5026102;28;20314;-50
2022/01/07 05:05:38;;;;;;;25.80;6.73;;;;;;;;;;5029737;28;20186;-51
2022/01/07 05:08:04;;;;;;;33.07;9.10;;;;;;;;;;5036688;28;20195;-51
2022/01/07 05:10:31;;;;;;;18.80;5.17;;;;;;;;;;5040835;28;20191;-51
2022/01/07 05:12:56;;;;;;;22.87;6.20;;;;;;;;;;5038464;28;20208;-51
2022/01/07 05:15:23;;;;;;;26.80;7.73;;;;;;;;;;5030164;28;20261;-50
2022/01/07 05:17:49;;;;;;;19.00;5.30;;;;;;;;;;5038003;28;20179;-51
2022/01/07 05:20:16;;;;;;;19.37;5.33;;;;;;;;;;5035843;28;20184;-51
2022/01/07 05:22:42;;;;;;;29.60;8.97;;;;;;;;;;5029968;28;20207;-50
2022/01/07 05:25:08;;;;;;;36.27;9.73;;;;;;;;;;5034826;28;20192;-51
2022/01/07 05:27:34;;;;;;;19.20;5.50;;;;;;;;;;5021384;28;20666;-51
2022/01/07 05:30:00;;;;;;;25.73;6.80;;;;;;;;;;5036198;28;20230;-50
2022/01/07 05:32:26;;;;;;;25.97;7.77;;;;;;;;;;5043659;28;20507;-50
2022/01/07 05:34:52;;;;;;;20.57;5.57;;;;;;;;;;5033810;28;20234;-51
2022/01/07 05:37:18;;;;;;;25.80;7.20;;;;;;;;;;5038340;28;20215;-51
2022/01/07 05:39:44;;;;;;;15.60;4.30;;;;;;;;;;5039023;28;20206;-52
2022/01/07 05:42:10;;;;;;;24.77;7.07;;;;;;;;;;5035946;28;20223;-51
2022/01/07 05:44:36;;;;;;;20.23;5.57;;;;;;;;;;5036849;28;20214;-51
2022/01/07 05:47:02;;;;;;;24.87;7.13;;;;;;;;;;5035986;28;20180;-51
2022/01/07 05:49:28;;;;;;;8.97;2.23;;;;;;;;;;5038124;28;20191;-49
2022/01/07 05:51:54;;;;;;;8.53;2.23;;;;;;;;;;5050381;28;20207;-49
2022/01/07 05:54:20;;;;;;;13.67;3.23;;;;;;;;;;5051411;28;20164;-49
2022/01/07 05:56:46;;;;;;;10.33;2.47;;;;;;;;;;5050923;28;20598;-49
2022/01/07 05:59:12;;;;;;;10.40;2.57;;;;;;;;;;5050649;28;20512;-49
2022/01/07 06:01:38;;;;;;;8.83;2.17;;;;;;;;;;5051095;28;20186;-49
2022/01/07 06:04:04;;;;;;;9.13;2.23;;;;;;;;;;5050400;28;20273;-49
2022/01/07 06:06:30;;;;;;;13.30;3.13;;;;;;;;;;5050502;28;20530;-49
2022/01/07 06:08:55;;;;;;;18.77;4.27;;;;;;;;;;5050702;28;20182;-49
2022/01/07 06:11:21;;;;;;;7.53;2.00;;;;;;;;;;5050485;28;20240;-49
2022/01/07 06:13:47;;;;;;;11.93;2.83;;;;;;;;;;5050865;28;20245;-49
2022/01/07 06:16:13;;;;;;;15.37;3.50;;;;;;;;;;5050387;28;20653;-49
2022/01/07 06:18:53;;;;;;;12.23;2.93;;;;;;;;;;5050566;28;20639;-49
2022/01/07 06:21:19;;;;;;;12.20;2.93;;;;;;;;;;5050756;28;20164;-49
2022/01/07 06:23:45;;;;;;;13.63;3.27;;;;;;;;;;5049997;28;20191;-49
2022/01/07 06:26:11;;;;;;;16.07;3.70;;;;;;;;;;5050477;28;20205;-49
2022/01/07 06:28:37;;;;;;;6.00;1.67;;;;;;;;;;5050617;28;20176;-49
2022/01/07 06:31:03;;;;;;;10.43;2.57;;;;;;;;;;5050292;28;20186;-49
2022/01/07 06:33:29;;;;;;;11.50;2.80;;;;;;;;;;5050383;28;20207;-49
2022/01/07 06:35:55;;;;;;;22.40;4.97;;;;;;;;;;5049729;28;20223;-49
2022/01/07 06:38:21;;;;;;;11.13;2.73;;;;;;;;;;5050473;28;20527;-49
2022/01/07 06:40:47;;;;;;;5.87;1.53;;;;;;;;;;5050826;28;20183;-49
2022/01/07 06:43:12;;;;;;;11.27;2.70;;;;;;;;;;5050306;28;20198;-49
2022/01/07 06:45:38;;;;;;;12.53;2.97;;;;;;;;;;5050391;28;20171;-48
2022/01/07 06:48:05;;;;;;;13.53;3.23;;;;;;;;;;5050883;28;20183;-49
2022/01/07 06:50:31;;;;;;;11.47;2.73;;;;;;;;;;5049608;28;20187;-49
2022/01/07 06:52:57;;;;;;;12.87;3.00;;;;;;;;;;5049930;28;20219;-49
2022/01/07 06:55:23;;;;;;;9.37;2.30;;;;;;;;;;5049967;28;20172;-49
2022/01/07 06:57:48;;;;;;;14.97;3.40;;;;;;;;;;5050153;28;20172;-49
2022/01/07 07:00:15;;;;;;;16.37;3.73;;;;;;;;;;5050118;28;20168;-49
2022/01/07 07:02:41;;;;;;;10.27;2.47;;;;;;;;;;5049808;28;20663;-48
2022/01/07 07:05:07;;;;;;;10.53;2.53;;;;;;;;;;5050026;28;20182;-48
2022/01/07 07:07:33;;;;;;;18.40;4.17;;;;;;;;;;5050001;28;20640;-48
2022/01/07 07:09:58;;;;;;;17.70;3.90;;;;;;;;;;5049997;28;20223;-48
2022/01/07 07:12:24;;;;;;;5.40;1.57;;;;;;;;;;5049912;28;20198;-48
2022/01/07 07:14:50;;;;;;;11.07;2.57;;;;;;;;;;5048685;28;20183;-49
2022/01/07 07:17:16;;;;;;;11.17;2.63;;;;;;;;;;5050217;28;20195;-48
2022/01/07 07:19:42;;;;;;;14.50;3.27;;;;;;;;;;5051907;28;20176;-47
2022/01/07 07:22:08;;;;;;;10.88;2.38;;;;;;;;;;5052524;28;20856;-48
2022/01/07 07:24:34;;;;;;;11.30;2.60;;;;;;;;;;5054161;28;20187;-48
2022/01/07 07:27:00;;;;;;;4.47;1.40;;;-1.00;99.90;;;;;;5053326;28;20187;-48
2022/01/07 07:29:25;;;;;;;8.43;2.27;;;-0.70;99.90;;;;;;5052646;28;20234;-48
2022/01/07 07:31:55;;;;;;;11.10;2.93;;;;;;;;;;5053901;28;20241;-48
2022/01/07 07:37:16;;;;;;;21.27;4.67;;;-0.90;99.90;;;;;;5053727;28;20201;-48
2022/01/07 07:39:41;;;;;;;15.17;3.63;;;-0.70;99.90;;;;;;5053213;28;20152;-48
2022/01/07 07:42:07;;;;;;;11.77;2.83;;;;;;;;;;5053354;28;20217;-47
2022/01/07 07:44:33;;;;;;;8.23;2.23;;;;;;;;;;5053262;28;20703;-48
2022/01/07 07:46:59;;;;;;;3.67;1.20;;;-0.10;99.90;;;;;;5053200;28;20254;-48
2022/01/07 07:49:25;;;;;;;10.80;2.67;;;0.10;99.90;;;;;;5052765;28;20513;-48
2022/01/07 07:51:52;;;;;;;14.57;3.50;;;;;;;;;;5052392;28;20266;-48
2022/01/07 07:54:18;;;;;;;18.33;4.97;;;0.40;99.90;;;;;;5051695;28;20540;-51
2022/01/07 07:56:44;;;;;;;41.23;12.47;;;;;;;;;;5004867;28;20239;-51
2022/01/07 07:59:09;;;;;;;20.63;6.13;;;;;;;;;;5006710;28;20188;-51
2022/01/07 08:01:36;;;;;;;29.33;8.70;;;;;;;;;;5034354;28;20188;-51
2022/01/07 08:04:03;;;;;;;16.70;5.03;;;0.80;99.90;;;;;;5017867;28;20219;-52
2022/01/07 08:06:29;;;;;;;15.37;5.17;;;;;;;;;;5035871;28;20188;-52
2022/01/07 08:08:55;;;;;;;17.57;5.10;;;;;;;;;;5038375;28;20195;-52
2022/01/07 08:11:24;;;;;;;17.00;4.90;;;;;;;;;;5039111;28;20262;-52
2022/01/07 08:16:51;;;;;;;33.33;9.67;;;;;;;;;;4936131;28;20779;-53
2022/01/07 08:19:17;;;;;;;16.70;5.17;;;;;;;;;;5012659;28;20242;-52
2022/01/07 08:21:45;;;;;;;11.73;3.17;;;;;;;;;;5036756;28;20271;-53
2022/01/07 08:24:11;;;;;;;19.67;5.90;;;0.10;99.50;;;;;;5033551;28;20671;-51
2022/01/07 08:26:37;;;;;;;18.27;5.10;;;0.20;96.80;;;;;;5042584;28;20231;-53
2022/01/07 08:29:06;;;;;;;16.40;5.40;;;;;;;;;;5043419;28;20195;-52
2022/01/07 08:36:45;;;;;;;26.20;7.07;;;-0.20;99.40;;;;;;5042117;28;20215;-51
2022/01/07 08:39:11;;;;;;;61.50;18.37;;;0.70;95.20;;;;;;5027532;28;20189;-51
2022/01/07 08:41:38;;;;;;;13.93;4.10;;;0.40;92.80;;;;;;5030373;28;20188;-51
2022/01/07 08:44:05;;;;;;;28.60;8.03;;;0.20;89.80;;;;;;5025254;28;20640;-52
2022/01/07 08:46:31;;;;;;;18.37;6.03;;;0.20;88.30;;;;;;5027452;28;20187;-52
2022/01/07 08:48:57;;;;;;;48.00;14.67;;;;;;;;;;5014283;28;20192;-53
2022/01/07 08:51:23;;;;;;;33.17;9.70;;;;;;;;;;5020862;28;20195;-52
2022/01/07 08:53:49;;;;;;;24.47;7.23;;;;;;;;;;5023595;28;20322;-52
2022/01/07 08:56:16;;;;;;;19.27;5.77;;;;;;;;;;5034028;28;20208;-53
2022/01/07 08:58:42;;;;;;;29.83;8.90;;;-0.10;91.50;;;;;;5028715;28;20188;-52
2022/01/07 09:01:08;;;;;;;24.20;7.17;;;;;;;;;;5023106;28;20195;-52
2022/01/07 09:03:34;;;;;;;19.50;6.30;;;;;;;;;;5030007;28;20195;-52
2022/01/07 09:06:00;;;;;;;45.90;13.77;;;;;;;;;;5028528;28;20210;-53
2022/01/07 09:08:26;;;;;;;23.77;6.90;;;;;;;;;;5019556;28;20238;-52
2022/01/07 09:10:52;;;;;;;21.93;6.33;;;0.60;73.20;;;;;;5031957;28;20660;-52
2022/01/07 09:13:20;;;;;;;21.10;6.27;;;;;;;;;;5034836;28;20218;-53
2022/01/07 09:15:46;;;;;;;22.00;6.63;;;0.90;69.20;;;;;;5032801;28;20207;-52
2022/01/07 09:18:14;;;;;;;25.93;7.43;;;;;;;;;;5031639;28;20457;-52
2022/01/07 09:20:41;;;;;;;19.60;5.37;;;0.80;66.50;;;;;;5036377;28;20192;-51
2022/01/07 09:23:08;;;;;;;25.00;7.53;;;0.70;46.80;;;;;;5028222;28;20218;-53
2022/01/07 09:25:34;;;;;;;17.33;5.50;;;;;;;;;;5023561;28;20520;-53
2022/01/07 09:28:00;;;;;;;23.80;7.43;;;;;;;;;;5029140;28;20176;-52
2022/01/07 09:30:26;;;;;;;19.07;5.70;;;1.00;36.00;;;;;;5035249;28;20184;-51
2022/01/07 09:32:52;;;;;;;26.30;7.93;;;1.00;47.30;;;;;;5037012;28;20241;-52
2022/01/07 09:35:18;;;;;;;16.50;5.00;;;1.20;42.30;;;;;;5025594;28;20310;-52
2022/01/07 09:37:44;;;;;;;35.00;10.97;;;1.00;21.30;;;;;;5023886;28;20216;-53
2022/01/07 09:40:11;;;;;;;36.73;10.53;;;0.70;30.70;;;;;;5026966;28;20187;-53
2022/01/07 09:42:37;;;;;;;14.73;4.37;;;;;;;;;;5030723;28;20211;-53
2022/01/07 09:45:04;;;;;;;21.63;6.00;;;1.00;24.90;;;;;;5035064;28;20180;-53
2022/01/07 09:47:30;;;;;;;18.80;5.30;;;;;;;;;;5023107;28;20286;-51
2022/01/07 09:49:56;;;;;;;25.23;6.57;;;;;;;;;;5022724;28;20409;-53
2022/01/07 09:52:24;;;;;;;59.73;13.73;;;1.20;4.10;;;;;;5054650;22;20238;-63
2022/01/07 09:54:50;;;;;;;20.23;5.10;;;;;;;;;;5039472;28;20183;-64
2022/01/07 09:57:16;;;;;;;20.47;5.10;;;;;;;;;;5039937;28;20587;-64
2022/01/07 09:59:42;;;;;;;21.50;5.43;;;;;;;;;;5056603;28;20190;-64
2022/01/07 10:02:09;;;;;;;33.30;7.87;;;1.30;1.00;;;;;;5046838;28;20199;-63
2022/01/07 10:04:35;;;;;;;18.60;4.80;;;;;;;;;;5012118;28;20214;-63
2022/01/07 10:07:22;;;;;;;22.67;5.60;;;1.30;1.00;;;;;;5036998;28;20215;-63
2022/01/07 10:10:17;;;;;;;35.97;8.63;;;1.20;1.00;;;;;;5007533;28;20188;-63
2022/01/07 10:12:50;;;;;;;21.70;5.43;;;1.50;1.00;;;;;;5033169;28;20677;-63
2022/01/07 10:15:23;;;;;;;23.20;5.80;;;1.40;1.00;;;;;;5031422;28;20293;-63
2022/01/07 10:18:04;;;;;;;26.03;6.37;;;1.40;1.00;;;;;;5031675;28;20294;-63
2022/01/07 10:20:44;;;;;;;23.10;5.73;;;1.50;1.00;;;;;;5034052;28;21732;-63
2022/01/07 10:23:15;;;;;;;25.87;6.47;;;1.60;1.00;;;;;;5030188;28;20684;-63
2022/01/07 10:25:44;;;;;;;18.27;4.67;;;1.60;1.00;;;;;;5032644;28;20334;-63
2022/01/07 10:28:19;;;;;;;23.57;5.90;;;1.70;1.00;;;;;;5035424;28;20332;-63
2022/01/07 10:30:49;;;;;;;57.73;12.87;;;1.60;1.00;;;;;;5024744;28;20214;-65
2022/01/07 10:33:15;;;;;;;26.47;6.37;;;;;;;;;;5029636;28;20298;-64
2022/01/07 10:35:41;;;;;;;20.80;5.17;;;;;;;;;;5024161;28;20275;-64
2022/01/07 10:38:07;;;;;;;27.03;6.70;;;;;;;;;;5024412;28;20257;-64
2022/01/07 10:40:37;;;;;;;22.03;5.40;;;1.60;1.00;;;;;;5027337;28;20195;-63
2022/01/07 10:43:13;;;;;;;25.57;6.27;;;1.60;1.00;;;;;;5024769;28;20222;-64
2022/01/07 10:45:41;;;;;;;25.07;6.20;;;1.70;1.00;;;;;;5035884;28;20786;-64
2022/01/07 10:48:07;;;;;;;20.30;5.13;;;;;;;;;;5030814;28;20777;-65
2022/01/07 10:50:38;;;;;;;42.73;9.50;;;1.70;1.00;;;;;;5029449;28;20330;-64
2022/01/07 10:53:17;;;;;;;47.23;10.97;;;1.70;1.00;;;;;;5021715;28;20273;-63
2022/01/07 10:56:03;;;;;;;29.00;6.93;;;1.80;1.00;;;;;;5033197;28;20180;-62
2022/01/07 10:58:29;;;;;;;23.50;5.87;;;;;;;;;;5040490;28;20194;-62
2022/01/07 11:00:55;;;;;;;29.73;7.07;;;;;;;;;;5028966;28;20225;-64
2022/01/07 11:03:21;;;;;;;23.00;5.70;;;;;;;;;;5036838;28;20258;-65
2022/01/07 11:05:47;;;;;;;18.37;4.63;;;;;;;;;;5039392;28;20188;-66
2022/01/07 11:08:15;;;;;;;24.77;6.20;;;2.10;1.00;;;;;;5036284;28;20210;-64
2022/01/07 11:10:41;;;;;;;20.97;5.30;;;2.20;1.00;;;;;;5042599;28;20455;-64
2022/01/07 11:13:07;;;;;;;33.77;8.13;;;;;;;;;;5011964;28;20215;-64
2022/01/07 11:15:33;;;;;;;14.87;3.93;;;;;;;;;;5031902;28;20188;-64
2022/01/07 11:17:59;;;;;;;23.37;5.90;;;;;;;;;;5033914;28;20181;-64
2022/01/07 11:20:25;;;;;;;15.37;4.03;;;;;;;;;;5034707;28;20510;-64
2022/01/07 11:22:51;;;;;;;36.43;8.67;;;2.40;1.00;;;;;;5025634;28;20204;-64
2022/01/07 11:25:17;;;;;;;36.47;8.87;;;1.40;1.00;;;;;;5032467;28;20184;-64
2022/01/07 11:27:57;;;;;;;31.43;7.70;;;2.50;1.00;;;;;;5029710;28;20624;-64
2022/01/07 11:30:26;;;;;;;29.97;7.47;;;2.50;1.00;;;;;;5033845;28;20620;-64
2022/01/07 11:32:52;;;;;;;25.47;6.43;;;2.50;1.00;;;;;;5036038;28;20211;-64
2022/01/07 11:35:19;;;;;;;26.43;6.63;;;;;;;;;;5015425;28;20609;-64
2022/01/07 11:37:55;;;;;;;27.70;6.93;;;2.70;1.00;;;;;;5034376;28;20298;-64
2022/01/07 11:40:33;;;;;;;22.53;5.67;;;2.50;1.00;;;;;;5026433;28;20252;-64
2022/01/07 11:43:22;;;;;;;23.27;5.83;;;2.30;1.00;;;;;;5036532;28;20294;-63
2022/01/07 11:45:47;;;;;;;21.63;5.67;;;2.80;1.00;;;;;;5004876;28;20191;-63
2022/01/07 11:48:23;;;;;;;23.03;5.83;;;2.70;1.00;;;;;;5034141;28;20188;-63
2022/01/07 11:50:49;;;;;;;23.57;5.93;;;;;;;;;;5028926;28;20537;-63
2022/01/07 11:53:15;;;;;;;29.77;7.33;;;;;;;;;;5026653;28;20230;-64
2022/01/07 11:55:41;;;;;;;14.40;3.87;;;3.00;93.50;;;;;;5032246;28;20226;-64
2022/01/07 11:58:12;;;;;;;24.53;6.20;;;3.10;99.90;;;;;;5031215;28;20688;-65
2022/01/07 12:01:00;;;;;;;24.17;6.07;;;3.30;1.00;;;;;;5026124;28;20720;-61
2022/01/07 12:03:46;;;;;;;70.80;15.73;;;3.30;99.90;;;;;;5029364;28;20207;-62
2022/01/07 12:06:17;;;;;;;30.70;7.27;;;3.30;99.90;;;;;;5039634;28;20198;-62
2022/01/07 12:09:11;;;;;;;28.50;6.77;;;3.40;99.90;;;;;;5022048;28;20203;-63
2022/01/07 12:11:43;;;;;;;25.33;6.00;;;3.30;99.90;;;;;;5032599;28;20180;-63
2022/01/07 12:14:11;;;;;;;34.87;8.03;;;3.30;99.90;;;;;;5036429;28;20701;-63
2022/01/07 12:16:37;;;;;;;32.43;7.53;;;3.30;99.90;;;;;;5014746;28;20213;-63
2022/01/07 12:19:12;;;;;;;28.60;6.73;;;3.10;99.90;;;;;;5032370;28;20183;-63
2022/01/07 12:21:39;;;;;;;38.77;8.83;;;3.30;99.90;;;;;;5029792;28;20207;-63
2022/01/07 12:24:15;;;;;;;46.53;10.63;;;3.20;99.90;;;;;;5025866;28;20181;-64
2022/01/07 12:26:41;;;;;;;55.83;12.13;;;;;;;;;;5015566;28;20715;-63
2022/01/07 12:29:20;;;;;;;36.57;8.33;;;3.10;99.90;;;;;;5029662;28;20273;-64
2022/01/07 12:31:53;;;;;;;25.73;6.07;;;3.10;99.90;;;;;;5030779;28;20199;-63
2022/01/07 12:34:32;;;;;;;30.37;7.10;;;3.10;99.90;;;;;;5011347;28;20245;-64
2022/01/07 12:37:05;;;;;;;32.53;7.67;;;3.00;99.90;;;;;;5026784;28;20310;-64
2022/01/07 12:39:33;;;;;;;33.07;7.63;;;3.00;99.90;;;;;;5028294;28;20298;-64
2022/01/07 12:41:59;;;;;;;48.70;10.93;;;;;;;;;;5026223;28;20226;-64
2022/01/07 12:44:26;;;;;;;29.90;7.20;;;;;;;;;;5035413;28;20199;-64
2022/01/07 12:46:55;;;;;;;24.30;5.77;;;1.70;99.90;;;;;;5029228;28;20200;-63
2022/01/07 12:49:21;;;;;;;36.03;8.27;;;;;;;;;;5039164;28;20855;-63
2022/01/07 12:52:08;;;;;;;50.43;11.33;;;3.10;99.90;;;;;;5026485;28;20307;-64
2022/01/07 12:54:35;;;;;;;51.37;11.53;;;3.20;99.90;;;;;;5029167;28;20284;-64
2022/01/07 12:57:01;;;;;;;35.67;8.23;;;;;;;;;;5029671;28;20218;-64
2022/01/07 12:59:29;;;;;;;35.50;8.23;;;;;;;;;;5029077;28;20195;-64
2022/01/07 13:01:55;;;;;;;45.43;10.40;;;;;;;;;;5024825;28;20207;-63
2022/01/07 13:04:23;;;;;;;27.30;6.60;;;3.30;99.90;;;;;;5029289;28;20187;-65
2022/01/07 13:06:49;;;;;;;21.50;5.33;;;;;;;;;;5021937;28;20676;-66
2022/01/07 13:09:26;;;;;;;25.10;5.93;;;3.20;99.90;;;;;;5035084;28;20782;-65
2022/01/07 13:11:58;;;;;;;36.03;8.13;;;2.40;99.90;;;;;;5017004;28;20533;-66
2022/01/07 13:14:25;;;;;;;33.73;7.93;;;3.40;99.90;;;;;;5030538;28;20191;-64
2022/01/07 13:16:58;;;;;;;30.30;7.17;;;3.70;99.90;;;;;;5028836;28;20678;-64
2022/01/07 13:19:24;;;;;;;26.37;6.47;;;;;;;;;;5027991;28;20200;-64
2022/01/07 13:21:52;;;;;;;31.13;7.40;;;3.60;99.90;;;;;;5035483;28;20688;-65
2022/01/07 13:24:22;;;;;;;22.20;5.40;;;3.50;99.90;;;;;;5027121;28;20202;-64
2022/01/07 13:26:54;;;;;;;60.57;13.17;;;3.40;99.90;;;;;;5027137;28;20950;-65
2022/01/07 13:29:27;;;;;;;28.70;6.70;;;3.30;99.90;;;;;;5031900;28;20188;-64
2022/01/07 13:32:03;;;;;;;31.30;7.33;;;3.40;99.90;;;;;;5030268;28;20326;-65
2022/01/07 13:34:31;;;;;;;22.60;5.57;;;3.40;99.90;;;;;;5032715;28;20191;-65
2022/01/07 13:37:02;;;;;;;30.87;7.20;;;3.40;99.90;;;;;;5034431;28;20231;-65
2022/01/07 13:39:38;;;;;;;29.57;6.97;;;3.40;99.90;;;;;;5009528;28;20195;-65
2022/01/07 13:42:05;;;;;;;24.43;5.93;;;3.40;99.90;;;;;;5029107;28;20343;-65
2022/01/07 13:44:46;;;;;;;17.00;4.37;;;3.30;99.90;;;;;;5031034;28;20183;-65
2022/01/07 13:47:25;;;;;;;37.67;8.80;;;3.30;99.90;;;;;;5015912;28;20636;-65
2022/01/07 13:49:51;;;;;;;31.73;7.53;;;3.50;99.90;;;;;;5015356;28;20209;-64
2022/01/07 13:52:28;;;;;;;31.00;7.27;;;3.30;99.90;;;;;;5031592;28;20281;-65
2022/01/07 13:54:54;;;;;;;18.20;4.57;;;3.20;99.90;;;;;;5039491;28;20187;-65
2022/01/07 13:57:19;;;;;;;24.40;5.83;;;3.30;99.90;;;;;;5015213;28;20217;-65
2022/01/07 13:59:45;;;;;;;17.20;4.33;;;;;;;;;;5033874;28;20192;-65
2022/01/07 14:02:21;;;;;;;19.10;4.80;;;3.20;99.90;;;;;;5045003;28;20704;-64
2022/01/07 14:04:49;;;;;;;32.67;7.57;;;3.10;99.90;;;;;;5034435;28;20179;-64
2022/01/07 14:07:35;;;;;;;19.90;4.97;;;3.10;99.90;;;;;;5021190;28;20704;-65
2022/01/07 14:10:14;;;;;;;23.10;5.57;;;3.10;99.90;;;;;;5036095;28;20207;-65